Home > Products > Valid Products > TAF

000
FTUS43 KDMX 040411 AAB
TAFOTM
TAF AMD
KOTM 040411Z 0404/0424 27012KT P6SM BKN090
      TEMPO 0404/0406 -SHRA
     FM040700 32011KT P6SM SKC
     FM041500 35016G23KT P6SM SKC=



000
FTUS43 KDMX 040105 AAA
TAFDSM
TAF AMD
KDSM 040105Z 0401/0424 27007KT P6SM SCT090
     FM040600 33010KT P6SM SKC
     FM041600 34014G22KT P6SM SKC=



000
FTUS43 KDMX 040105 AAA
TAFOTM
TAF AMD
KOTM 040105Z 0401/0424 27008KT P6SM SCT090
     FM040700 32011KT P6SM SKC
     FM041500 35016G23KT P6SM SKC=



000
FTUS43 KDMX 040104 AAA
TAFMCW
TAF AMD
KMCW 040104Z 0401/0424 27012KT P6SM VCSH BKN070
     FM040300 33013KT P6SM SKC
     FM041500 35018G25KT P6SM SCT050=



000
FTUS43 KDMX 040102 AAA
TAFFOD
TAF AMD
KFOD 040102Z 0401/0424 28010KT P6SM SCT090
     FM040400 35007KT P6SM SKC
     FM041600 36011G17KT P6SM SKC=



000
FTUS43 KDMX 032334
TAFALO
TAF
KALO 032334Z 0400/0424 28012G21KT P6SM SCT070
     FM040200 27012KT P6SM VCSH BKN060
     FM040600 33011KT P6SM SKC
     FM041500 34017G25KT P6SM SKC=



000
FTUS43 KDMX 032334
TAFDSM
TAF
KDSM 032334Z 0400/0424 28014G20KT P6SM SCT070
     FM040200 27012KT P6SM SKC
     FM040700 33010KT P6SM SKC
     FM041600 34014G22KT P6SM SKC=



000
FTUS43 KDMX 032334
TAFMCW
TAF
KMCW 032334Z 0400/0424 27015G25KT P6SM SCT080
     FM040100 30014KT P6SM VCSH BKN070
     FM040500 34013KT P6SM SKC
     FM041500 35018G25KT P6SM SCT050=



000
FTUS43 KDMX 032334
TAFOTM
TAF
KOTM 032334Z 0400/0424 28012G19KT P6SM SCT070
     FM040200 28010KT P6SM SKC
     FM040800 32011KT P6SM SKC
     FM041500 35016G23KT P6SM SKC=



000
FTUS43 KDMX 032334
TAFFOD
TAF
KFOD 032334Z 0400/0424 28012G19KT P6SM SCT060
     FM040200 30007KT P6SM SCT060
     FM040600 36006KT P6SM SKC
     FM041600 36011G17KT P6SM SKC=



000
FTUS43 KDMX 032334
TAFDSM
TAF
KDSM 032334Z 0400/0424 28014G20KT P6SM SCT070
     FM040200 27012KT P6SM SKC
     FM040700 33010KT P6SM SKC
     FM041600 34014G22KT P6SM SKC=



000
FTUS43 KDMX 032334
TAFMCW
TAF
KMCW 032334Z 0400/0424 27015G25KT P6SM SCT080
     FM040100 30014KT P6SM VCSH BKN070
     FM040500 34013KT P6SM SKC
     FM041500 35018G25KT P6SM SCT050=



000
FTUS43 KDMX 032334
TAFOTM
TAF
KOTM 032334Z 0400/0424 28012G19KT P6SM SCT070
     FM040200 28010KT P6SM SKC
     FM040800 32011KT P6SM SKC
     FM041500 35016G23KT P6SM SKC=



000
FTUS43 KDMX 032334
TAFFOD
TAF
KFOD 032334Z 0400/0424 28012G19KT P6SM SCT060
     FM040200 30007KT P6SM SCT060
     FM040600 36006KT P6SM SKC
     FM041600 36011G17KT P6SM SKC=



000
FTUS43 KDMX 032334
TAFALO
TAF
KALO 032334Z 0400/0424 28012G21KT P6SM SCT070
     FM040200 27012KT P6SM VCSH BKN060
     FM040600 33011KT P6SM SKC
     FM041500 34017G25KT P6SM SKC=



000
FTUS43 KDMX 032151 AAA
TAFALO
TAF AMD
KALO 032151Z 0322/0418 27014G23KT P6SM BKN070
     FM040100 27012KT P6SM VCSH BKN060
     FM040500 33011KT P6SM FEW050
     FM041500 34017G25KT P6SM SKC=



000
FTUS43 KDMX 032151 AAA
TAFDSM
TAF AMD
KDSM 032151Z 0322/0418 27016G23KT P6SM SCT070
     FM040000 27012KT P6SM SCT070
     FM040600 32012KT P6SM FEW070
     FM041600 34014G22KT P6SM SKC=



000
FTUS43 KDMX 032151 AAA
TAFDSM
TAF AMD
KDSM 032151Z 0322/0418 27016G23KT P6SM SCT070
     FM040000 27012KT P6SM SCT070
     FM040600 32012KT P6SM FEW070
     FM041600 34014G22KT P6SM SKC=



000
FTUS43 KDMX 032151 AAA
TAFALO
TAF AMD
KALO 032151Z 0322/0418 27014G23KT P6SM BKN070
     FM040100 27012KT P6SM VCSH BKN060
     FM040500 33011KT P6SM FEW050
     FM041500 34017G25KT P6SM SKC=



000
FTUS43 KDMX 031724
TAFALO
TAF
KALO 031724Z 0318/0418 27014KT P6SM BKN070
     FM040100 27012KT P6SM VCSH BKN060
     FM040500 33011KT P6SM FEW050
     FM041500 34017G25KT P6SM SKC=



000
FTUS43 KDMX 031724
TAFMCW
TAF
KMCW 031724Z 0318/0418 27014G24KT P6SM SCT070
     FM040000 30014KT P6SM VCSH BKN070
     FM040300 34013KT P6SM FEW060
     FM041500 35018G25KT P6SM SKC=



000
FTUS43 KDMX 031724
TAFFOD
TAF
KFOD 031724Z 0318/0418 27012G19KT P6SM SCT060
     FM040100 30007KT P6SM FEW250
     FM040600 36003KT P6SM SKC
     FM041600 36011G17KT P6SM SKC=



000
FTUS43 KDMX 031724
TAFDSM
TAF
KDSM 031724Z 0318/0418 28012KT P6SM SCT070
     FM040600 32012KT P6SM FEW070
     FM041600 34014G22KT P6SM SKC=



000
FTUS43 KDMX 031724
TAFOTM
TAF
KOTM 031724Z 0318/0418 28010KT P6SM BKN070
     FM040300 25010KT P6SM VCSH BKN070
     FM040700 32011KT P6SM FEW070
     FM041500 35016G23KT P6SM SKC=



000
FTUS43 KDMX 031724
TAFALO
TAF
KALO 031724Z 0318/0418 27014KT P6SM BKN070
     FM040100 27012KT P6SM VCSH BKN060
     FM040500 33011KT P6SM FEW050
     FM041500 34017G25KT P6SM SKC=



000
FTUS43 KDMX 031130
TAFDSM
TAF
KDSM 031130Z 0312/0412 27004KT P6SM FEW200
     FM031600 28011G18KT P6SM FEW250
     FM040000 27009KT P6SM SCT120
     FM040800 33009KT P6SM FEW250=



000
FTUS43 KDMX 031130
TAFOTM
TAF
KOTM 031130Z 0312/0412 28006KT P6SM FEW090
     FM031600 28011G18KT P6SM FEW250
     FM040000 26009KT P6SM SCT060
     FM040800 32010KT P6SM FEW250=



000
FTUS43 KDMX 031130
TAFALO
TAF
KALO 031130Z 0312/0412 26006KT P6SM FEW200
     FM031600 27011G17KT P6SM FEW250
     FM040000 26011KT P6SM SCT060
     FM040200 28010KT P6SM VCSH SCT120
     FM040400 32010KT P6SM FEW200=



000
FTUS43 KDMX 031130
TAFMCW
TAF
KMCW 031130Z 0312/0412 26008KT P6SM FEW250
     FM031600 28013G21KT P6SM FEW250
     FM032300 30011KT P6SM SCT050
     FM040500 34011KT P6SM FEW250=



000
FTUS43 KDMX 031130
TAFFOD
TAF
KFOD 031130Z 0312/0412 26006KT P6SM SKC
     FM031700 27013G20KT P6SM SCT250
     FM040100 30009KT P6SM SCT050
     FM040500 33010KT P6SM FEW250=



000
FTUS43 KDMX 031130
TAFOTM
TAF
KOTM 031130Z 0312/0412 28006KT P6SM FEW090
     FM031600 28011G18KT P6SM FEW250
     FM040000 26009KT P6SM SCT060
     FM040800 32010KT P6SM FEW250=



000
FTUS43 KDMX 031130
TAFDSM
TAF
KDSM 031130Z 0312/0412 27004KT P6SM FEW200
     FM031600 28011G18KT P6SM FEW250
     FM040000 27009KT P6SM SCT120
     FM040800 33009KT P6SM FEW250=



000
FTUS43 KDMX 031130
TAFALO
TAF
KALO 031130Z 0312/0412 26006KT P6SM FEW200
     FM031600 27011G17KT P6SM FEW250
     FM040000 26011KT P6SM SCT060
     FM040200 28010KT P6SM VCSH SCT120
     FM040400 32010KT P6SM FEW200=



000
FTUS43 KDMX 031130
TAFMCW
TAF
KMCW 031130Z 0312/0412 26008KT P6SM FEW250
     FM031600 28013G21KT P6SM FEW250
     FM032300 30011KT P6SM SCT050
     FM040500 34011KT P6SM FEW250=



000
FTUS43 KDMX 031130
TAFFOD
TAF
KFOD 031130Z 0312/0412 26006KT P6SM SKC
     FM031700 27013G20KT P6SM SCT250
     FM040100 30009KT P6SM SCT050
     FM040500 33010KT P6SM FEW250=



000
FTUS43 KDMX 030640 AAA
TAFOTM
TAF AMD
KOTM 030640Z 0307/0406 28005KT P6SM SKC
      TEMPO 0307/0310 1 1/2SM BR
     FM031900 28012KT P6SM FEW250=



000
FTUS43 KDMX 030520
TAFALO
TAF
KALO 030520Z 0306/0406 VRB03KT P6SM SKC
     FM031400 27008KT P6SM SKC
     FM031800 27015G23KT P6SM SCT150
     FM040200 32011KT P6SM VCSH BKN110=



000
FTUS43 KDMX 030520
TAFOTM
TAF
KOTM 030520Z 0306/0406 28005KT P6SM SKC
      TEMPO 0306/0310 1 1/2SM BR
     FM031900 28012KT P6SM FEW250=



000
FTUS43 KDMX 030520
TAFFOD
TAF
KFOD 030520Z 0306/0406 27006KT P6SM SKC
     FM031800 28012G18KT P6SM SCT250
     FM040200 32007KT P6SM SCT120=



000
FTUS43 KDMX 030520
TAFALO
TAF
KALO 030520Z 0306/0406 VRB03KT P6SM SKC
     FM031400 27008KT P6SM SKC
     FM031800 27015G23KT P6SM SCT150
     FM040200 32011KT P6SM VCSH BKN110=



000
FTUS43 KDMX 030520
TAFOTM
TAF
KOTM 030520Z 0306/0406 28005KT P6SM SKC
     FM031900 28012KT P6SM FEW250=



000
FTUS43 KDMX 030520
TAFFOD
TAF
KFOD 030520Z 0306/0406 27006KT P6SM SKC
     FM031800 28012G18KT P6SM SCT250
     FM040200 32007KT P6SM SCT120=



000
FTUS43 KDMX 030520
TAFMCW
TAF
KMCW 030520Z 0306/0406 VRB03KT P6SM SKC
     FM031400 27011KT P6SM SKC
     FM031700 28016G24KT P6SM FEW250
     FM040200 31012KT P6SM SCT120=



000
FTUS43 KDMX 030520
TAFDSM
TAF
KDSM 030520Z 0306/0406 VRB03KT P6SM SKC
     FM031500 27008KT P6SM SKC
     FM031900 28013G20KT P6SM SCT200
     FM040300 29011KT P6SM SCT120=



000
FTUS43 KDMX 030520
TAFMCW
TAF
KMCW 030520Z 0306/0406 VRB03KT P6SM SKC
     FM031400 27011KT P6SM SKC
     FM031700 28016G24KT P6SM FEW250
     FM040200 31012KT P6SM SCT120=



000
FTUS43 KDMX 030520
TAFOTM
TAF
KOTM 030520Z 0306/0406 28005KT P6SM SKC
      TEMPO 0306/0310 1 1/2SM BR
     FM031900 28012KT P6SM FEW250=



000
FTUS43 KDMX 030520
TAFOTM
TAF
KOTM 030520Z 0306/0406 28005KT P6SM SKC
     FM031900 28012KT P6SM FEW250=



000
FTUS43 KDMX 030520
TAFDSM
TAF
KDSM 030520Z 0306/0406 VRB03KT P6SM SKC
     FM031500 27008KT P6SM SKC
     FM031900 28013G20KT P6SM SCT200
     FM040300 29011KT P6SM SCT120=



000
FTUS43 KDMX 022337
TAFMCW
TAF
KMCW 022337Z 0300/0324 VRB03KT P6SM SKC
     FM031400 27012KT P6SM FEW250
     FM031900 28018G24KT P6SM SCT120=



000
FTUS43 KDMX 022337
TAFDSM
TAF
KDSM 022337Z 0300/0324 VRB03KT P6SM SCT100
     FM030500 VRB03KT P6SM SKC
     FM031400 27008KT P6SM FEW250
     FM031900 28013G20KT P6SM FEW200=



000
FTUS43 KDMX 022337
TAFOTM
TAF
KOTM 022337Z 0300/0324 VRB03KT P6SM BKN100
     FM030500 VRB02KT P6SM FEW250
     FM031500 28010KT P6SM FEW250=



000
FTUS43 KDMX 022337
TAFFOD
TAF
KFOD 022337Z 0300/0324 VRB03KT P6SM SKC
     FM031400 26007KT P6SM FEW250
     FM032000 28012G19KT P6SM SCT110=



000
FTUS43 KDMX 022337
TAFALO
TAF
KALO 022337Z 0300/0324 VRB02KT P6SM FEW100
     FM031500 28008KT P6SM FEW250
     FM031900 27013G20KT P6SM SCT200
     FM032300 27013KT P6SM VCSH BKN150=



000
FTUS43 KDMX 022337
TAFALO
TAF
KALO 022337Z 0300/0324 VRB02KT P6SM FEW100
     FM031500 28008KT P6SM FEW250
     FM031900 27013G20KT P6SM SCT200
     FM032300 27013KT P6SM VCSH BKN150=



000
FTUS43 KDMX 022337
TAFOTM
TAF
KOTM 022337Z 0300/0324 VRB03KT P6SM BKN100
     FM030500 VRB02KT P6SM FEW250
     FM031500 28010KT P6SM FEW250=



000
FTUS43 KDMX 022337
TAFFOD
TAF
KFOD 022337Z 0300/0324 VRB03KT P6SM SKC
     FM031400 26007KT P6SM FEW250
     FM032000 28012G19KT P6SM SCT110=



000
FTUS43 KDMX 022337
TAFDSM
TAF
KDSM 022337Z 0300/0324 VRB03KT P6SM SCT100
     FM030500 VRB03KT P6SM SKC
     FM031400 27008KT P6SM FEW250
     FM031900 28013G20KT P6SM FEW200=



000
FTUS43 KDMX 022337
TAFMCW
TAF
KMCW 022337Z 0300/0324 VRB03KT P6SM SKC
     FM031400 27012KT P6SM FEW250
     FM031900 28018G24KT P6SM SCT120=



000
FTUS43 KDMX 021936 AAA
TAFALO
TAF AMD
KALO 021936Z 0220/0318 06010KT P6SM SCT050
     FM030000 VRB03KT P6SM SKC
     FM031500 27014G18KT P6SM SCT060=



000
FTUS43 KDMX 021936 AAA
TAFALO
TAF AMD
KALO 021936Z 0220/0318 06010KT P6SM SCT050
     FM030000 VRB03KT P6SM SKC
     FM031500 27014G18KT P6SM SCT060=



000
FTUS43 KDMX 021729
TAFDSM
TAF
KDSM 021729Z 0218/0318 VRB05KT P6SM SCT035 SCT080
     FM022000 VRB06KT P6SM VCSH BKN040
     FM030000 VRB03KT P6SM BKN060
     FM030600 24003KT P6SM SKC
     FM031500 27012KT P6SM SCT060=



000
FTUS43 KDMX 021729
TAFFOD
TAF
KFOD 021729Z 0218/0318 VRB04KT P6SM BKN080
     FM022000 VRB05KT P6SM VCSH BKN060
     FM030000 25003KT P6SM BKN060
     FM030600 24002KT P6SM SKC
     FM031500 26011KT P6SM SKC=



000
FTUS43 KDMX 021729
TAFOTM
TAF
KOTM 021729Z 0218/0318 01008KT P6SM BKN040
     FM022000 01008KT P6SM VCSH BKN040
     FM030100 VRB03KT P6SM BKN050
     FM030600 25005KT P6SM SKC
     FM031500 27011KT P6SM BKN060=



000
FTUS43 KDMX 021729
TAFALO
TAF
KALO 021729Z 0218/0318 VRB03KT P6SM SCT060
     FM022300 VRB03KT P6SM SKC
     FM031500 27014G18KT P6SM SCT060=



000
FTUS43 KDMX 021729
TAFMCW
TAF
KMCW 021729Z 0218/0318 VRB05KT P6SM BKN080
     FM030600 25004KT P6SM SKC
     FM031500 27012KT P6SM SKC=



000
FTUS43 KDMX 021649 AAC
TAFOTM
TAF AMD
KOTM 021649Z 0217/0312 01011KT P6SM SCT025 BKN035
     FM021900 01008KT P6SM VCSH BKN040
     FM030100 34003KT P6SM SKC=



000
FTUS43 KDMX 021626 AAB
TAFDSM
TAF AMD
KDSM 021626Z 0216/0312 01005KT P6SM SCT035 SCT080
     FM021900 01007KT P6SM VCSH BKN040
     FM030100 19003KT P6SM SKC=



000
FTUS43 KDMX 021538 AAB
TAFOTM
TAF AMD
KOTM 021538Z 0216/0312 02007KT P6SM SCT015 BKN025
     FM021900 02008KT P6SM VCSH BKN035
     FM030100 34003KT P6SM SKC=



000
FTUS43 KDMX 021317 AAC
TAFALO
TAF AMD
KALO 021317Z 0213/0312 05003KT P6SM SCT080
     FM022000 03005KT P6SM VCSH BKN060
     FM030300 25003KT P6SM SKC=



000
FTUS43 KDMX 021240 AAB
TAFALO
TAF AMD
KALO 021240Z 0213/0312 VRB02KT 5SM BR BKN080
     FM021400 VRB04KT P6SM SCT080
     FM022000 VRB04KT P6SM VCSH BKN050
     FM030300 25003KT P6SM SKC=



000
FTUS43 KDMX 021240 AAB
TAFALO
TAF AMD
KALO 021240Z 0213/0312 VRB02KT 5SM BR BKN080
     FM021400 VRB04KT P6SM SCT080
     FM022000 VRB04KT P6SM VCSH BKN050
     FM030300 25003KT P6SM SKC=



000
FTUS43 KDMX 021239 AAA
TAFDSM
TAF AMD
KDSM 021239Z 0213/0312 VRB02KT 6SM BR SCT040
     FM021400 03005KT P6SM BKN080
     FM021700 02007KT P6SM VCSH BKN050
     FM030100 19003KT P6SM SKC=



000
FTUS43 KDMX 021239 AAA
TAFDSM
TAF AMD
KDSM 021239Z 0213/0312 VRB02KT 6SM BR SCT040
     FM021400 03005KT P6SM BKN080
     FM021700 02007KT P6SM VCSH BKN050
     FM030100 19003KT P6SM SKC=



000
FTUS43 KDMX 021228 AAA
TAFALO
TAF AMD
KALO 021228Z 0212/0312 VRB02KT 2SM BR BKN080
      TEMPO 0212/0213 1SM BR SCT002
     FM022000 VRB04KT P6SM VCSH BKN050
     FM030300 25003KT P6SM SKC=



000
FTUS43 KDMX 021227 AAA
TAFFOD
TAF AMD
KFOD 021227Z 0212/0312 VRB02KT P6SM BKN080
     FM022000 VRB04KT P6SM VCSH BKN050
     FM030300 25003KT P6SM SKC=



000
FTUS43 KDMX 021227 AAA
TAFFOD
TAF AMD
KFOD 021227Z 0212/0312 VRB02KT P6SM BKN080
     FM022000 VRB04KT P6SM VCSH BKN050
     FM030300 25003KT P6SM SKC=



000
FTUS43 KDMX 021210 AAA
TAFOTM
TAF AMD
KOTM 021210Z 0212/0312 VRB02KT 6SM BR BKN040
      TEMPO 0212/0213 5SM BR
     FM021400 03005KT P6SM BKN080
     FM021700 02008KT P6SM VCSH BKN050
     FM030100 34003KT P6SM SKC=



000
FTUS43 KDMX 021210 AAA
TAFOTM
TAF AMD
KOTM 021210Z 0212/0312 VRB02KT 6SM BR BKN040
      TEMPO 0212/0213 5SM BR
     FM021400 03005KT P6SM BKN080
     FM021700 02008KT P6SM VCSH BKN050
     FM030100 34003KT P6SM SKC=



000
FTUS43 KDMX 021208 AAB
TAFMCW
TAF AMD
KMCW 021208Z 0212/0312 VRB04KT 6SM BR SCT080
      TEMPO 0212/0213 3SM BR SCT002
     FM022000 VRB04KT P6SM VCSH BKN050
     FM030300 25003KT P6SM SKC=



000
FTUS43 KDMX 021208 AAB
TAFMCW
TAF AMD
KMCW 021208Z 0212/0312 VRB04KT 6SM BR SCT080
      TEMPO 0212/0213 3SM BR SCT002
     FM022000 VRB04KT P6SM VCSH BKN050
     FM030300 25003KT P6SM SKC=



000
FTUS43 KDMX 021129 AAA
TAFMCW
TAF AMD
KMCW 021129Z 0211/0312 VRB02KT 2SM BR BKN080
      TEMPO 0212/0213 1/4SM FG SCT002
     FM022000 VRB04KT P6SM VCSH BKN050
     FM030300 25003KT P6SM SKC=



000
FTUS43 KDMX 021128
TAFFOD
TAF
KFOD 021128Z 0212/0312 VRB02KT 6SM BR BKN080
      TEMPO 0212/0213 1/2SM FG OVC002
     FM022000 VRB04KT P6SM VCSH BKN050
     FM030300 25003KT P6SM SKC=



000
FTUS43 KDMX 021128
TAFMCW
TAF
KMCW 021128Z 0212/0312 VRB02KT 3SM BR BKN080
      TEMPO 0212/0213 1SM BR SCT002
     FM022000 VRB04KT P6SM VCSH BKN050
     FM030300 25003KT P6SM SKC=



000
FTUS43 KDMX 021128
TAFALO
TAF
KALO 021128Z 0212/0312 VRB02KT 3/4SM BR BKN080
      TEMPO 0212/0213 1/4SM FG SCT002
     FM022000 VRB04KT P6SM VCSH BKN050
     FM030300 25003KT P6SM SKC=



000
FTUS43 KDMX 021128
TAFDSM
TAF
KDSM 021128Z 0212/0312 VRB02KT 6SM BR SCT040
      TEMPO 0212/0213 3SM BR
     FM021400 03005KT P6SM BKN080
     FM021700 02007KT P6SM VCSH BKN050
     FM030100 19003KT P6SM SKC=



000
FTUS43 KDMX 021128
TAFOTM
TAF
KOTM 021128Z 0212/0312 VRB02KT 6SM BR BKN040
     FM021400 03005KT P6SM BKN080
     FM021700 02008KT P6SM VCSH BKN050
     FM030100 34003KT P6SM SKC=



000
FTUS43 KDMX 021053 AAA
TAFMCW
TAF AMD
KMCW 021053Z 0211/0306 VRB04KT 1SM BR FEW100
     FM021800 VRB05KT P6SM BKN050=



000
FTUS43 KDMX 021052 AAB
TAFALO
TAF AMD
KALO 021052Z 0211/0306 36005KT 6SM BR SCT060
      TEMPO 0211/0213 1/4SM FG SCT002
     FM021800 VRB05KT P6SM BKN050=



000
FTUS43 KDMX 020945 AAA
TAFFOD
TAF AMD
KFOD 020945Z 0210/0306 VRB02KT 2SM BR FEW100
      TEMPO 0210/0213 1/2SM FG OVC002
     FM021800 VRB04KT P6SM BKN050=



000
FTUS43 KDMX 020944 AAA
TAFALO
TAF AMD
KALO 020944Z 0210/0306 36005KT 6SM BR SCT060
      TEMPO 0210/0213 1/2SM FG
     FM021800 VRB05KT P6SM BKN050=



000
FTUS43 KDMX 020705 AAA
TAFOTM
TAF AMD
KOTM 020705Z 0207/0306 29003KT P6SM BKN035
     FM021300 01006KT 6SM BR SCT020 BKN035
     FM021900 VRB05KT P6SM BKN045=



000
FTUS43 KDMX 020705 AAA
TAFOTM
TAF AMD
KOTM 020705Z 0207/0306 29003KT P6SM BKN035
     FM021300 01006KT 6SM BR SCT020 BKN035
     FM021900 VRB05KT P6SM BKN045=



000
FTUS43 KDMX 020539
TAFDSM
TAF
KDSM 020539Z 0206/0306 35005KT P6SM SCT015 BKN045
      TEMPO 0206/0208 BKN015
     FM021000 01004KT 6SM BR SCT010 BKN070
     FM021700 VRB05KT P6SM BKN050=



000
FTUS43 KDMX 020539
TAFFOD
TAF
KFOD 020539Z 0206/0306 VRB04KT P6SM BKN070
     FM021000 VRB03KT P6SM FEW100
     FM021800 VRB04KT P6SM BKN050=



000
FTUS43 KDMX 020539
TAFOTM
TAF
KOTM 020539Z 0206/0306 36006KT 3SM BR BKN008 OVC015
      TEMPO 0206/0208 BKN004
     FM021300 01006KT 6SM BR SCT020 BKN035
     FM021900 VRB05KT P6SM BKN045=



000
FTUS43 KDMX 020539
TAFMCW
TAF
KMCW 020539Z 0206/0306 VRB05KT P6SM BKN070
     FM020800 VRB04KT P6SM FEW100
     FM021800 VRB05KT P6SM BKN050=



000
FTUS43 KDMX 020539
TAFALO
TAF
KALO 020539Z 0206/0306 36005KT P6SM BKN060
     FM021000 02005KT P6SM SCT090
     FM021800 VRB05KT P6SM BKN050=



000
FTUS43 KDMX 020214 AAA
TAFDSM
TAF AMD
KDSM 020214Z 0202/0224 35007KT 6SM BR SCT025 OVC035
      TEMPO 0202/0205 BKN015 OVC025
     FM021000 35005KT 5SM BR FEW010 SCT080
     FM021700 01008KT P6SM BKN050=



000
FTUS43 KDMX 020213 AAA
TAFOTM
TAF AMD
KOTM 020213Z 0202/0224 36008KT 6SM BR VCSH SCT008 BKN015 OVC025
      TEMPO 0202/0205 3SM BR BKN008
     FM020500 36005KT 3SM BR BKN007 OVC015
     FM021500 01008KT 6SM BR SCT025 BKN040=



000
FTUS43 KDMX 012325
TAFFOD
TAF
KFOD 012325Z 0200/0224 01006KT P6SM BKN060
     FM020600 35005KT P6SM SCT100
     FM021800 32004KT P6SM BKN050=



000
FTUS43 KDMX 012325
TAFOTM
TAF
KOTM 012325Z 0200/0224 36008KT 6SM BR VCSH SCT009 BKN015 OVC025
      TEMPO 0200/0201 5SM BR BKN008
     FM020500 36005KT 3SM BR BKN009 OVC015
     FM021500 01008KT 6SM BR SCT025 BKN040=



000
FTUS43 KDMX 012325
TAFDSM
TAF
KDSM 012325Z 0200/0224 02011KT 6SM BR VCSH SCT012 BKN020 OVC030
     FM020200 35007KT 6SM BR SCT025 OVC035
     FM021000 35005KT 5SM BR FEW010 SCT080
     FM021700 01008KT P6SM BKN050=



000
FTUS43 KDMX 012325
TAFALO
TAF
KALO 012325Z 0200/0224 02007KT 6SM BR VCSH FEW010 SCT020 OVC035
      TEMPO 0200/0202 4SM -SHRA BKN025
     FM020200 36006KT P6SM SCT040 BKN060
     FM021000 02006KT P6SM SCT100
     FM021800 01005KT P6SM BKN050=



000
FTUS43 KDMX 012325
TAFMCW
TAF
KMCW 012325Z 0200/0224 01008KT P6SM SCT045 BKN060
     FM020700 35005KT P6SM SCT100
     FM021800 32004KT P6SM BKN050=



000
FTUS43 KDMX 011913 AAA
TAFOTM
TAF AMD
KOTM 011913Z 0119/0218 03008KT 4SM -SHRA BR OVC006
      TEMPO 0119/0121 3SM -SHRA BR
     FM012100 01008KT 6SM BR VCSH OVC011
     FM020000 35007KT 5SM BR OVC015
     FM020700 34005KT 2SM BR SCT002 OVC007
     FM021500 01008KT P6SM BKN035=



000
FTUS43 KDMX 011911 AAA
TAFDSM
TAF AMD
KDSM 011911Z 0119/0218 02007KT 6SM -RA SCT005 OVC011
      TEMPO 0119/0121 3SM -RA BKN010
     FM012100 01010KT 6SM BR VCSH OVC015
     FM020100 35005KT P6SM OVC040
     FM021400 01004KT P6SM BKN100=



000
FTUS43 KDMX 011903 AAA
TAFFOD
TAF AMD
KFOD 011903Z 0119/0218 01012KT P6SM -SHRA BKN009 OVC015
     FM012200 02011KT P6SM BKN025
     FM020100 35005KT P6SM SCT030 OVC050=



000
FTUS43 KDMX 011857 AAA
TAFALO
TAF AMD
KALO 011857Z 0119/0218 03012KT P6SM -SHRA SCT015 OVC025
      TEMPO 0119/0123 3SM -SHRA BR SCT008 BKN015
     FM020000 36004KT P6SM SCT035 BKN060=



000
FTUS43 KDMX 011739
TAFFOD
TAF
KFOD 011739Z 0118/0218 03012KT 6SM -SHRA BR SCT006 OVC015
     FM012200 02011KT P6SM BKN025
     FM020100 35005KT P6SM SCT030 OVC050=



000
FTUS43 KDMX 011739
TAFOTM
TAF
KOTM 011739Z 0118/0218 05008KT 4SM BR VCSH OVC004
      TEMPO 0118/0120 3SM -SHRA BR
     FM012000 03010KT 3SM -RA BR OVC007
     FM020000 35007KT 5SM BR OVC011
     FM020700 34005KT 2SM BR SCT002 OVC007
     FM021500 01008KT P6SM BKN035=



000
FTUS43 KDMX 011739
TAFALO
TAF
KALO 011739Z 0118/0218 03012KT P6SM VCSH SCT008 OVC015
      TEMPO 0118/0122 3SM -SHRA BR BKN008
     FM020000 36004KT P6SM SCT035 BKN060=



000
FTUS43 KDMX 011739
TAFMCW
TAF
KMCW 011739Z 0118/0218 04011KT P6SM SCT019 OVC035
      TEMPO 0118/0120 BKN019
     FM012200 02012KT P6SM BKN060
     FM020100 34005KT P6SM BKN060=



000
FTUS43 KDMX 011739
TAFDSM
TAF
KDSM 011739Z 0118/0218 02008KT 2SM -RA OVC006
     FM012100 01010KT 6SM BR VCSH OVC015
     FM020100 35005KT P6SM OVC040
     FM021400 01004KT P6SM BKN100=



000
FTUS43 KDMX 011529 AAB
TAFOTM
TAF AMD
KOTM 011529Z 0115/0212 06008KT 4SM BR OVC004
     FM011900 03012KT 2SM -RA BR OVC006
     FM012300 01012KT 2SM BR VCSH OVC010
     FM020100 35007KT 5SM BR OVC030
     FM021000 02004KT 5SM BR SCT005 BKN025=



000
FTUS43 KDMX 011528 AAB
TAFFOD
TAF AMD
KFOD 011528Z 0115/0212 03011KT 3SM -SHRA BR OVC008
     FM012200 01011KT 6SM BR OVC025
     FM020200 35005KT P6SM OVC035
     FM021000 03003KT 3SM BR SCT003 BKN060=



000
FTUS43 KDMX 011416 AAA
TAFDSM
TAF AMD
KDSM 011416Z 0114/0212 06008KT P6SM VCSH OVC005
      TEMPO 0114/0117 4SM -SHRA
     FM011700 03012KT 3SM -SHRA BR OVC007
     FM012200 01012KT 6SM BR VCSH OVC010
     FM020100 35007KT P6SM OVC040
     FM021000 02004KT 5SM BR SCT005 BKN025=



000
FTUS43 KDMX 011413 AAA
TAFOTM
TAF AMD
KOTM 011413Z 0114/0212 06008KT 2SM BR OVC003
     FM011700 03012KT 3SM -RA BR OVC003
     FM012200 01012KT 2SM BR VCSH OVC010
     FM020100 35007KT 5SM BR OVC030
     FM021000 02004KT 5SM BR SCT005 BKN025=



000
FTUS43 KDMX 011359 AAA
TAFMCW
TAF AMD
KMCW 011359Z 0114/0212 04013KT 6SM BR VCSH BKN015 OVC020
     FM012200 01011KT 6SM BR OVC025
     FM020200 35005KT P6SM OVC035
     FM021000 36003KT 5SM BR SCT003 BKN080=



000
FTUS43 KDMX 011357 AAA
TAFFOD
TAF AMD
KFOD 011357Z 0114/0212 03013KT 6SM BR VCSH OVC015
     FM012200 01011KT 6SM BR OVC025
     FM020200 35005KT P6SM OVC035
     FM021000 03003KT 3SM BR SCT003 BKN060=



000
FTUS43 KDMX 011152 CCA
TAFOTM
TAF COR
KOTM 011152Z 0112/0212 06008KT 6SM BR OVC004
      TEMPO 0112/0114 2SM BR OVC003
     FM011700 03012KT 3SM -RA BR OVC003
     FM012200 01012KT 2SM BR VCSH OVC010
     FM020300 35007KT 5SM BR OVC030
     FM021000 02004KT 5SM BR SCT005 BKN025=



000
FTUS43 KDMX 011135
TAFOTM
TAF
KOTM 011135Z 0112/0212 06008KT 6SM BR OVC004
     FM011700 03012KT 3SM -RA BR OVC003
     FM012200 01012KT 2SM BR VCSH OVC010
     FM020300 35007KT 5SM BR OVC030
     FM021000 02004KT 5SM BR SCT005 BKN025=



000
FTUS43 KDMX 011135
TAFMCW
TAF
KMCW 011135Z 0112/0212 04012KT P6SM OVC025
     FM011700 02013KT 6SM BR VCSH OVC015
     FM012200 01011KT 6SM BR OVC025
     FM020200 35005KT P6SM OVC035
     FM021000 36003KT 5SM BR SCT003 BKN080=



000
FTUS43 KDMX 011135
TAFDSM
TAF
KDSM 011135Z 0112/0212 06008KT P6SM -DZ OVC005
     FM011400 03012KT 3SM -RA BR OVC003
     FM012200 01012KT 6SM BR VCSH OVC010
     FM020300 35007KT P6SM OVC040
     FM021000 02004KT 5SM BR SCT005 BKN025=



000
FTUS43 KDMX 011135
TAFFOD
TAF
KFOD 011135Z 0112/0212 05013KT P6SM OVC006
     FM011600 02013KT 6SM BR VCSH OVC010
     FM012200 01011KT 6SM BR OVC025
     FM020200 35005KT P6SM OVC035
     FM021000 03003KT 3SM BR SCT003 BKN060=



000
FTUS43 KDMX 011135
TAFALO
TAF
KALO 011135Z 0112/0212 05012KT P6SM OVC015
     FM011600 03013KT 3SM -RA BR SCT006 OVC012
     FM012300 02012KT 6SM BR VCSH BKN025 OVC040
     FM020200 35009KT P6SM BKN060
     FM021000 02003KT 4SM BR SCT003 BKN040=



000
FTUS43 KDMX 010713 AAA
TAFDSM
TAF AMD
KDSM 010713Z 0107/0206 07009KT 4SM -DZ BR OVC004
     FM011400 03012KT 3SM -RA BR SCT009 OVC015
     FM012200 01012KT 6SM BR OVC015
     FM020300 35007KT P6SM BKN040=



000
FTUS43 KDMX 010712 AAA
TAFALO
TAF AMD
KALO 010712Z 0107/0206 05010KT 3SM BR OVC008
     FM011300 04013KT 5SM BR VCSH OVC014
     FM011600 03013KT 3SM -RA BR BKN016 OVC025
     FM012300 02012KT 6SM BR BKN025 OVC040
     FM020200 01009KT P6SM SCT050=



000
FTUS43 KDMX 010712 AAA
TAFALO
TAF AMD
KALO 010712Z 0107/0206 05010KT 3SM BR OVC008
     FM011300 04013KT 5SM BR VCSH OVC014
     FM011600 03013KT 3SM -RA BR BKN016 OVC025
     FM012300 02012KT 6SM BR BKN025 OVC040
     FM020200 01009KT P6SM SCT050=



000
FTUS43 KDMX 010711 AAA
TAFMCW
TAF AMD
KMCW 010711Z 0107/0206 05017KT 5SM BR VCSH SCT009 BKN016 OVC035
      TEMPO 0107/0109 2SM -SHRA BR OVC008
     FM010900 04014KT 5SM BR VCSH BKN020 OVC040
     FM011300 03012KT 6SM BR VCSH BKN030 OVC050
     FM012200 01010KT P6SM SCT050=



000
FTUS43 KDMX 010710 AAA
TAFFOD
TAF AMD
KFOD 010710Z 0107/0206 05010KT 3SM BR VCSH OVC005
     FM011600 02013KT 5SM BR VCSH OVC010
     FM012100 01011KT 6SM BR OVC025
     FM020100 35005KT P6SM SCT050=



000
FTUS43 KDMX 010520
TAFFOD
TAF
KFOD 010520Z 0106/0206 05015KT 5SM BR VCSH BKN008 OVC014
     FM011000 04012KT 3SM BR VCSH SCT009 OVC015
     FM011600 02013KT 5SM BR VCSH OVC010
     FM012100 01011KT 6SM BR OVC025
     FM020100 35005KT P6SM SCT050=



000
FTUS43 KDMX 010520
TAFDSM
TAF
KDSM 010520Z 0106/0206 05011KT 2SM -RA BR BKN006 OVC012
     FM011400 03012KT 3SM -RA BR SCT009 OVC015
     FM012200 01012KT 6SM BR OVC015
     FM020300 35007KT P6SM BKN040=



000
FTUS43 KDMX 010520
TAFALO
TAF
KALO 010520Z 0106/0206 05014KT 6SM BR OVC012
     FM011300 04013KT 5SM BR VCSH OVC014
     FM011600 03013KT 3SM -RA BR BKN016 OVC025
     FM012300 02012KT 6SM BR BKN025 OVC040
     FM020200 01009KT P6SM SCT050=



000
FTUS43 KDMX 010520
TAFOTM
TAF
KOTM 010520Z 0106/0206 06011KT 4SM BR VCSH OVC005
     FM011500 02011KT 4SM BR VCSH BKN008 OVC014
     FM012300 36007KT 6SM BR BKN030=



000
FTUS43 KDMX 010520
TAFMCW
TAF
KMCW 010520Z 0106/0206 05017KT 5SM BR VCSH SCT009 BKN016 OVC035
      TEMPO 0106/0107 3SM -SHRA BR BKN009
     FM010900 04014KT 5SM BR VCSH BKN020 OVC040
     FM011300 03012KT 6SM BR VCSH BKN030 OVC050
     FM012200 01010KT P6SM SCT050=



    US Dept of Commerce
    National Oceanic and Atmospheric Administration
    National Weather Service
    1325 East West Highway
    Silver Spring, MD 20910
    Page Author: NWS Internet Services Team
Disclaimer
Information Quality
Credits
Glossary
Privacy Policy
Freedom of Information Act (FOIA)
About Us
Career Opportunities